AUA552K LIRF-LOWW
Flight info
| Callsign | AUA552K |
|---|---|
| Flight time | 1h 8m |
| Altitude | 36000 |
| Route | SOVAN DCT AMTEL DCT GAVRA DCT LAPNA LAPNA2W |
| Aircraft | A321/M-SDE3FGHIRWY/LB1 |
Departure
| Time | 2026-05-05 16:13 |
|---|---|
| Airport | Rome–Fiumicino Leonardo da Vinci International Airport (LIRF) |
Arrival
| Time | 2026-05-05 17:21 |
|---|---|
| Airport | Vienna International Airport (LOWW) |
| Time | Latitude | Longitude | Altitude | Speed | Heading |
|---|---|---|---|---|---|
| 2026-05-05 15:26 | 41.79708 | 12.25835 | 16 ft | 0 kts | 115° |
| 2026-05-05 15:27 | 41.79704 | 12.25825 | 16 ft | 0 kts | 116° |
| 2026-05-05 15:29 | 41.79666 | 12.25800 | 16 ft | 0 kts | 115° |
| 2026-05-05 15:33 | 41.79675 | 12.25806 | 15 ft | 0 kts | 115° |
| 2026-05-05 15:33 | 41.79670 | 12.25815 | 14 ft | 0 kts | 115° |
| 2026-05-05 16:04 | 41.79674 | 12.25804 | 15 ft | 4 kts | 108° |
| 2026-05-05 16:04 | 41.79678 | 12.25770 | 17 ft | 3 kts | 111° |
| 2026-05-05 16:04 | 41.79685 | 12.25746 | 15 ft | 4 kts | 86° |
| 2026-05-05 16:04 | 41.79674 | 12.25721 | 16 ft | 3 kts | 27° |
| 2026-05-05 16:05 | 41.79653 | 12.25707 | 16 ft | 2 kts | 26° |
| 2026-05-05 16:05 | 41.79651 | 12.25706 | 16 ft | 0 kts | 26° |
| 2026-05-05 16:07 | 41.79665 | 12.25715 | 18 ft | 6 kts | 24° |
| 2026-05-05 16:07 | 41.79732 | 12.25732 | 14 ft | 13 kts | 9° |
| 2026-05-05 16:07 | 41.79818 | 12.25777 | 14 ft | 13 kts | 24° |
| 2026-05-05 16:07 | 41.79890 | 12.25832 | 14 ft | 11 kts | 28° |
| 2026-05-05 16:08 | 41.79959 | 12.25876 | 14 ft | 11 kts | 25° |
| 2026-05-05 16:08 | 41.80033 | 12.25921 | 14 ft | 12 kts | 24° |
| 2026-05-05 16:08 | 41.80114 | 12.25971 | 14 ft | 14 kts | 24° |
| 2026-05-05 16:08 | 41.80204 | 12.26027 | 14 ft | 15 kts | 24° |
| 2026-05-05 16:09 | 41.80302 | 12.26087 | 16 ft | 16 kts | 25° |
| 2026-05-05 16:09 | 41.80408 | 12.26153 | 15 ft | 17 kts | 23° |
| 2026-05-05 16:09 | 41.80515 | 12.26208 | 16 ft | 14 kts | 51° |
| 2026-05-05 16:09 | 41.80563 | 12.26362 | 17 ft | 23 kts | 70° |
| 2026-05-05 16:10 | 41.80624 | 12.26585 | 15 ft | 26 kts | 70° |
| 2026-05-05 16:10 | 41.80685 | 12.26806 | 14 ft | 26 kts | 70° |
| 2026-05-05 16:10 | 41.80734 | 12.26986 | 15 ft | 18 kts | 70° |
| 2026-05-05 16:10 | 41.80773 | 12.27114 | 14 ft | 12 kts | 55° |
| 2026-05-05 16:11 | 41.80844 | 12.27128 | 13 ft | 11 kts | 343° |
| 2026-05-05 16:11 | 41.80984 | 12.27023 | 13 ft | 5 kts | 263° |
| 2026-05-05 16:12 | 41.80969 | 12.26970 | 14 ft | 14 kts | 249° |
| 2026-05-05 16:12 | 41.80581 | 12.25561 | 16 ft | 138 kts | 249° |
| 2026-05-05 16:13 | 41.79381 | 12.21233 | 1304 ft | 169 kts | 245° |
| 2026-05-05 16:13 | 41.79261 | 12.19638 | 1916 ft | 178 kts | 272° |
| 2026-05-05 16:13 | 41.79719 | 12.18064 | 2458 ft | 188 kts | 301° |
| 2026-05-05 16:14 | 41.81398 | 12.15343 | 3371 ft | 198 kts | 304° |
| 2026-05-05 16:14 | 41.83237 | 12.12192 | 3958 ft | 224 kts | 305° |
| 2026-05-05 16:15 | 41.85776 | 12.09798 | 4931 ft | 242 kts | 341° |
| 2026-05-05 16:15 | 41.89310 | 12.08474 | 5631 ft | 277 kts | 341° |
| 2026-05-05 16:16 | 41.93062 | 12.07088 | 7043 ft | 282 kts | 342° |
| 2026-05-05 16:16 | 41.96939 | 12.05990 | 8381 ft | 291 kts | 353° |
| 2026-05-05 16:17 | 42.01019 | 12.05609 | 9735 ft | 296 kts | 352° |
| 2026-05-05 16:17 | 42.03088 | 12.05405 | 10311 ft | 302 kts | 352° |
| 2026-05-05 16:18 | 42.07575 | 12.04950 | 10555 ft | 343 kts | 353° |
| 2026-05-05 16:18 | 42.10020 | 12.04706 | 10678 ft | 361 kts | 353° |
| 2026-05-05 16:18 | 42.15153 | 12.04205 | 11543 ft | 374 kts | 353° |
| 2026-05-05 16:19 | 42.17765 | 12.03955 | 12088 ft | 378 kts | 352° |
| 2026-05-05 16:19 | 42.20338 | 12.03461 | 12611 ft | 380 kts | 347° |
| 2026-05-05 16:19 | 42.25588 | 12.02281 | 13726 ft | 385 kts | 347° |
| 2026-05-05 16:20 | 42.30903 | 12.01079 | 14670 ft | 390 kts | 347° |
| 2026-05-05 16:20 | 42.36297 | 11.99866 | 15580 ft | 396 kts | 347° |
| 2026-05-05 16:21 | 42.41765 | 11.98634 | 16469 ft | 400 kts | 347° |
| 2026-05-05 16:22 | 42.50082 | 11.96752 | 17659 ft | 408 kts | 347° |
| 2026-05-05 16:22 | 42.55711 | 11.95483 | 18393 ft | 412 kts | 347° |
| 2026-05-05 16:23 | 42.61404 | 11.94190 | 19039 ft | 416 kts | 347° |
| 2026-05-05 16:23 | 42.64267 | 11.93538 | 19369 ft | 418 kts | 347° |
| 2026-05-05 16:23 | 42.69997 | 11.92231 | 20046 ft | 422 kts | 347° |
| 2026-05-05 16:24 | 42.72900 | 11.91570 | 20388 ft | 424 kts | 347° |
| 2026-05-05 16:24 | 42.75815 | 11.90904 | 20726 ft | 426 kts | 347° |
| 2026-05-05 16:24 | 42.81672 | 11.89518 | 21436 ft | 428 kts | 343° |
| 2026-05-05 16:25 | 42.84504 | 11.88291 | 21778 ft | 426 kts | 333° |
| 2026-05-05 16:25 | 42.89756 | 11.84591 | 22490 ft | 427 kts | 328° |
| 2026-05-05 16:25 | 42.92375 | 11.82669 | 22852 ft | 429 kts | 328° |
| 2026-05-05 16:26 | 42.97654 | 11.78808 | 23545 ft | 433 kts | 328° |
| 2026-05-05 16:26 | 43.02983 | 11.74907 | 24142 ft | 436 kts | 328° |
| 2026-05-05 16:27 | 43.05657 | 11.72943 | 24491 ft | 436 kts | 327° |
| 2026-05-05 16:27 | 43.08328 | 11.70977 | 24826 ft | 437 kts | 327° |
| 2026-05-05 16:27 | 43.11007 | 11.68999 | 25160 ft | 438 kts | 327° |
| 2026-05-05 16:27 | 43.13693 | 11.67014 | 25490 ft | 439 kts | 327° |
| 2026-05-05 16:28 | 43.16365 | 11.65064 | 25703 ft | 444 kts | 329° |
| 2026-05-05 16:28 | 43.19274 | 11.63546 | 25950 ft | 453 kts | 339° |
| 2026-05-05 16:28 | 43.22394 | 11.62741 | 26216 ft | 462 kts | 349° |
| 2026-05-05 16:28 | 43.25634 | 11.62705 | 26472 ft | 471 kts | 0° |
| 2026-05-05 16:29 | 43.28886 | 11.63489 | 26692 ft | 479 kts | 11° |
| 2026-05-05 16:29 | 43.32106 | 11.64727 | 26937 ft | 481 kts | 11° |
| 2026-05-05 16:29 | 43.35337 | 11.65978 | 27171 ft | 483 kts | 11° |
| 2026-05-05 16:29 | 43.38579 | 11.67237 | 27380 ft | 485 kts | 11° |
| 2026-05-05 16:30 | 43.41831 | 11.68504 | 27620 ft | 486 kts | 11° |
| 2026-05-05 16:30 | 43.45083 | 11.69771 | 27874 ft | 486 kts | 11° |
| 2026-05-05 16:30 | 43.48341 | 11.71035 | 28048 ft | 488 kts | 11° |
| 2026-05-05 16:30 | 43.51618 | 11.72306 | 28224 ft | 489 kts | 11° |
| 2026-05-05 16:31 | 43.54887 | 11.73577 | 28442 ft | 489 kts | 11° |
| 2026-05-05 16:31 | 43.58162 | 11.74853 | 28696 ft | 488 kts | 10° |
| 2026-05-05 16:31 | 43.61429 | 11.76127 | 28961 ft | 488 kts | 10° |
| 2026-05-05 16:31 | 43.64694 | 11.77406 | 29198 ft | 488 kts | 10° |
| 2026-05-05 16:32 | 43.67960 | 11.78688 | 29391 ft | 488 kts | 10° |
| 2026-05-05 16:32 | 43.71228 | 11.79972 | 29604 ft | 488 kts | 10° |
| 2026-05-05 16:32 | 43.74467 | 11.81394 | 29833 ft | 492 kts | 16° |
| 2026-05-05 16:32 | 43.77570 | 11.83435 | 30044 ft | 497 kts | 25° |
| 2026-05-05 16:33 | 43.80427 | 11.86078 | 30263 ft | 503 kts | 34° |
| 2026-05-05 16:33 | 43.83066 | 11.89268 | 30449 ft | 505 kts | 39° |
| 2026-05-05 16:33 | 43.85667 | 11.92541 | 30616 ft | 505 kts | 38° |
| 2026-05-05 16:33 | 43.88266 | 11.95814 | 30798 ft | 505 kts | 38° |
| 2026-05-05 16:34 | 43.90871 | 11.99095 | 30969 ft | 505 kts | 38° |
| 2026-05-05 16:34 | 43.93470 | 12.02370 | 31150 ft | 506 kts | 38° |
| 2026-05-05 16:34 | 43.96080 | 12.05657 | 31315 ft | 506 kts | 38° |
| 2026-05-05 16:34 | 43.98679 | 12.08928 | 31587 ft | 503 kts | 38° |
| 2026-05-05 16:35 | 44.01268 | 12.12189 | 31808 ft | 502 kts | 38° |
| 2026-05-05 16:35 | 44.03852 | 12.15455 | 32022 ft | 502 kts | 38° |
| 2026-05-05 16:35 | 44.06429 | 12.18719 | 32202 ft | 502 kts | 38° |
| 2026-05-05 16:35 | 44.09011 | 12.21994 | 32390 ft | 502 kts | 38° |
| 2026-05-05 16:36 | 44.11589 | 12.25271 | 32593 ft | 502 kts | 38° |
| 2026-05-05 16:36 | 44.14167 | 12.28549 | 32801 ft | 502 kts | 38° |
| 2026-05-05 16:36 | 44.16747 | 12.31834 | 32977 ft | 502 kts | 38° |
| 2026-05-05 16:36 | 44.19326 | 12.35119 | 33154 ft | 503 kts | 38° |
| 2026-05-05 16:37 | 44.21872 | 12.38368 | 33345 ft | 503 kts | 37° |
| 2026-05-05 16:37 | 44.24457 | 12.41668 | 33529 ft | 503 kts | 37° |
| 2026-05-05 16:37 | 44.27032 | 12.44957 | 33775 ft | 501 kts | 37° |
| 2026-05-05 16:37 | 44.29599 | 12.48244 | 33984 ft | 500 kts | 37° |
| 2026-05-05 16:38 | 44.32165 | 12.51536 | 34188 ft | 500 kts | 37° |
| 2026-05-05 16:38 | 44.34729 | 12.54828 | 34324 ft | 501 kts | 37° |
| 2026-05-05 16:38 | 44.37293 | 12.58120 | 34479 ft | 501 kts | 37° |
| 2026-05-05 16:38 | 44.39853 | 12.61412 | 34645 ft | 500 kts | 38° |
| 2026-05-05 16:39 | 44.42409 | 12.64708 | 34821 ft | 499 kts | 38° |
| 2026-05-05 16:39 | 44.44959 | 12.68003 | 34993 ft | 499 kts | 38° |
| 2026-05-05 16:39 | 44.47504 | 12.71294 | 35159 ft | 498 kts | 38° |
| 2026-05-05 16:39 | 44.50043 | 12.74574 | 35367 ft | 496 kts | 38° |
| 2026-05-05 16:40 | 44.52571 | 12.77846 | 35599 ft | 493 kts | 38° |
| 2026-05-05 16:40 | 44.55088 | 12.81111 | 35793 ft | 492 kts | 39° |
| 2026-05-05 16:40 | 44.57594 | 12.84372 | 35935 ft | 491 kts | 39° |
| 2026-05-05 16:40 | 44.60094 | 12.87624 | 35966 ft | 490 kts | 39° |
| 2026-05-05 16:41 | 44.65090 | 12.94115 | 35950 ft | 489 kts | 39° |
| 2026-05-05 16:41 | 44.70024 | 13.00538 | 35959 ft | 485 kts | 39° |
| 2026-05-05 16:42 | 44.74962 | 13.07001 | 35958 ft | 484 kts | 39° |
| 2026-05-05 16:42 | 44.79889 | 13.13464 | 35965 ft | 484 kts | 40° |
| 2026-05-05 16:43 | 44.84815 | 13.19942 | 35987 ft | 484 kts | 40° |
| 2026-05-05 16:43 | 44.89733 | 13.26433 | 35998 ft | 484 kts | 40° |
| 2026-05-05 16:44 | 44.94637 | 13.32921 | 36002 ft | 483 kts | 40° |
| 2026-05-05 16:44 | 44.99538 | 13.39413 | 36016 ft | 483 kts | 41° |
| 2026-05-05 16:45 | 45.04425 | 13.45903 | 36026 ft | 482 kts | 41° |
| 2026-05-05 16:45 | 45.09270 | 13.52355 | 36029 ft | 481 kts | 41° |
| 2026-05-05 16:46 | 45.14133 | 13.58851 | 36014 ft | 480 kts | 41° |
| 2026-05-05 16:46 | 45.18984 | 13.65338 | 36031 ft | 478 kts | 41° |
| 2026-05-05 16:47 | 45.21394 | 13.68568 | 35552 ft | 475 kts | 41° |
| 2026-05-05 16:47 | 45.23789 | 13.71785 | 35123 ft | 472 kts | 41° |
| 2026-05-05 16:47 | 45.26171 | 13.74987 | 34968 ft | 473 kts | 41° |
| 2026-05-05 16:47 | 45.28571 | 13.78209 | 35018 ft | 476 kts | 41° |
| 2026-05-05 16:48 | 45.33393 | 13.84691 | 35013 ft | 477 kts | 41° |
| 2026-05-05 16:48 | 45.37394 | 13.90098 | 35011 ft | 477 kts | 42° |
| 2026-05-05 16:49 | 45.42195 | 13.96607 | 35016 ft | 477 kts | 41° |
| 2026-05-05 16:49 | 45.46993 | 14.03116 | 35020 ft | 477 kts | 41° |
| 2026-05-05 16:50 | 45.51798 | 14.09644 | 35040 ft | 477 kts | 41° |
| 2026-05-05 16:50 | 45.56601 | 14.16176 | 35036 ft | 477 kts | 42° |
| 2026-05-05 16:51 | 45.61392 | 14.22741 | 35034 ft | 477 kts | 41° |
| 2026-05-05 16:51 | 45.66181 | 14.29310 | 35030 ft | 477 kts | 41° |
| 2026-05-05 16:52 | 45.70961 | 14.35879 | 35033 ft | 476 kts | 41° |
| 2026-05-05 16:52 | 45.75697 | 14.42409 | 35026 ft | 475 kts | 41° |
| 2026-05-05 16:53 | 45.80455 | 14.48978 | 35018 ft | 475 kts | 41° |
| 2026-05-05 16:53 | 45.85204 | 14.55547 | 35005 ft | 475 kts | 41° |
| 2026-05-05 16:54 | 45.89956 | 14.62132 | 35007 ft | 475 kts | 42° |
| 2026-05-05 16:54 | 45.94702 | 14.68738 | 35006 ft | 475 kts | 42° |
| 2026-05-05 16:55 | 45.99440 | 14.75348 | 34999 ft | 475 kts | 42° |
| 2026-05-05 16:55 | 46.04174 | 14.81974 | 35010 ft | 474 kts | 42° |
| 2026-05-05 16:56 | 46.08903 | 14.88595 | 35004 ft | 474 kts | 41° |
| 2026-05-05 16:56 | 46.13615 | 14.95220 | 35003 ft | 473 kts | 41° |
| 2026-05-05 16:57 | 46.18323 | 15.01861 | 34993 ft | 473 kts | 41° |
| 2026-05-05 16:57 | 46.23027 | 15.08508 | 34997 ft | 472 kts | 41° |
| 2026-05-05 16:58 | 46.27687 | 15.15102 | 34992 ft | 472 kts | 41° |
| 2026-05-05 16:58 | 46.32371 | 15.21750 | 34983 ft | 472 kts | 42° |
| 2026-05-05 16:59 | 46.37046 | 15.28408 | 34972 ft | 471 kts | 42° |
| 2026-05-05 16:59 | 46.41713 | 15.35071 | 34974 ft | 470 kts | 42° |
| 2026-05-05 17:00 | 46.46375 | 15.41729 | 34967 ft | 470 kts | 42° |
| 2026-05-05 17:00 | 46.51031 | 15.48377 | 34961 ft | 469 kts | 40° |
| 2026-05-05 17:01 | 46.56353 | 15.53697 | 34967 ft | 463 kts | 23° |
| 2026-05-05 17:01 | 46.62267 | 15.57338 | 34956 ft | 462 kts | 20° |
| 2026-05-05 17:02 | 46.68202 | 15.60965 | 34607 ft | 462 kts | 20° |
| 2026-05-05 17:02 | 46.71171 | 15.62784 | 34346 ft | 462 kts | 20° |
| 2026-05-05 17:02 | 46.74104 | 15.64579 | 33443 ft | 467 kts | 21° |
| 2026-05-05 17:03 | 46.77119 | 15.66426 | 32473 ft | 470 kts | 21° |
| 2026-05-05 17:03 | 46.80145 | 15.68283 | 31548 ft | 474 kts | 21° |
| 2026-05-05 17:03 | 46.83187 | 15.70156 | 30634 ft | 476 kts | 21° |
| 2026-05-05 17:03 | 46.86265 | 15.72054 | 29495 ft | 483 kts | 21° |
| 2026-05-05 17:04 | 46.89371 | 15.73971 | 28420 ft | 485 kts | 22° |
| 2026-05-05 17:04 | 46.92481 | 15.75897 | 27385 ft | 487 kts | 22° |
| 2026-05-05 17:04 | 46.95596 | 15.77827 | 26678 ft | 482 kts | 22° |
| 2026-05-05 17:04 | 46.98676 | 15.79738 | 25958 ft | 477 kts | 22° |
| 2026-05-05 17:05 | 47.01720 | 15.81629 | 25263 ft | 474 kts | 22° |
| 2026-05-05 17:05 | 47.04747 | 15.83509 | 24569 ft | 471 kts | 22° |
| 2026-05-05 17:05 | 47.07754 | 15.85371 | 23895 ft | 467 kts | 22° |
| 2026-05-05 17:05 | 47.10734 | 15.87220 | 23176 ft | 464 kts | 22° |
| 2026-05-05 17:06 | 47.13690 | 15.89060 | 22505 ft | 457 kts | 22° |
| 2026-05-05 17:06 | 47.16559 | 15.90847 | 21898 ft | 451 kts | 21° |
| 2026-05-05 17:06 | 47.19462 | 15.92659 | 21280 ft | 444 kts | 21° |
| 2026-05-05 17:06 | 47.22274 | 15.94227 | 20922 ft | 430 kts | 12° |
| 2026-05-05 17:07 | 47.25137 | 15.95019 | 20826 ft | 409 kts | 7° |
| 2026-05-05 17:07 | 47.27945 | 15.95708 | 20722 ft | 411 kts | 7° |
| 2026-05-05 17:07 | 47.30767 | 15.96397 | 20631 ft | 412 kts | 7° |
| 2026-05-05 17:07 | 47.33599 | 15.97087 | 20328 ft | 415 kts | 7° |
| 2026-05-05 17:08 | 47.36442 | 15.97776 | 19774 ft | 412 kts | 7° |
| 2026-05-05 17:08 | 47.39265 | 15.98459 | 19138 ft | 417 kts | 7° |
| 2026-05-05 17:08 | 47.42181 | 15.99157 | 18568 ft | 431 kts | 7° |
| 2026-05-05 17:08 | 47.45168 | 15.99872 | 18021 ft | 435 kts | 7° |
| 2026-05-05 17:09 | 47.48141 | 16.00588 | 17290 ft | 431 kts | 7° |
| 2026-05-05 17:09 | 47.51095 | 16.01303 | 16636 ft | 428 kts | 7° |
| 2026-05-05 17:09 | 47.54011 | 16.02010 | 15972 ft | 422 kts | 8° |
| 2026-05-05 17:09 | 47.56903 | 16.02712 | 15342 ft | 421 kts | 8° |
| 2026-05-05 17:10 | 47.59743 | 16.03404 | 14741 ft | 417 kts | 8° |
| 2026-05-05 17:10 | 47.62585 | 16.04096 | 14129 ft | 411 kts | 8° |
| 2026-05-05 17:10 | 47.65397 | 16.04784 | 13551 ft | 409 kts | 8° |
| 2026-05-05 17:10 | 47.68188 | 16.05467 | 12949 ft | 403 kts | 8° |
| 2026-05-05 17:11 | 47.70940 | 16.06140 | 12577 ft | 400 kts | 7° |
| 2026-05-05 17:11 | 47.73683 | 16.06807 | 12042 ft | 399 kts | 8° |
| 2026-05-05 17:11 | 47.76410 | 16.07471 | 11487 ft | 394 kts | 8° |
| 2026-05-05 17:11 | 47.79100 | 16.08127 | 11299 ft | 392 kts | 7° |
| 2026-05-05 17:12 | 47.81777 | 16.08785 | 10801 ft | 388 kts | 8° |
| 2026-05-05 17:12 | 47.84421 | 16.09437 | 10439 ft | 378 kts | 8° |
| 2026-05-05 17:12 | 47.86964 | 16.10062 | 10173 ft | 365 kts | 7° |
| 2026-05-05 17:12 | 47.89456 | 16.10670 | 9669 ft | 361 kts | 7° |
| 2026-05-05 17:13 | 47.91927 | 16.11275 | 9120 ft | 358 kts | 7° |
| 2026-05-05 17:13 | 47.94372 | 16.11876 | 8504 ft | 356 kts | 6° |
| 2026-05-05 17:13 | 47.96777 | 16.12711 | 7987 ft | 353 kts | 21° |
| 2026-05-05 17:13 | 47.98956 | 16.14222 | 7878 ft | 337 kts | 25° |
| 2026-05-05 17:14 | 48.01004 | 16.15726 | 7725 ft | 318 kts | 25° |
| 2026-05-05 17:14 | 48.02949 | 16.17166 | 7523 ft | 307 kts | 25° |
| 2026-05-05 17:14 | 48.04837 | 16.18578 | 7223 ft | 300 kts | 25° |
| 2026-05-05 17:14 | 48.06698 | 16.19975 | 6807 ft | 299 kts | 25° |
| 2026-05-05 17:15 | 48.08551 | 16.21392 | 6353 ft | 300 kts | 25° |
| 2026-05-05 17:15 | 48.10401 | 16.22816 | 6070 ft | 295 kts | 25° |
| 2026-05-05 17:15 | 48.12168 | 16.24183 | 5937 ft | 277 kts | 25° |
| 2026-05-05 17:15 | 48.13856 | 16.25493 | 5678 ft | 270 kts | 25° |
| 2026-05-05 17:16 | 48.15512 | 16.26770 | 5434 ft | 265 kts | 26° |
| 2026-05-05 17:16 | 48.17143 | 16.27967 | 5013 ft | 260 kts | 25° |
| 2026-05-05 17:16 | 48.18723 | 16.29279 | 4357 ft | 260 kts | 43° |
| 2026-05-05 17:16 | 48.19689 | 16.31500 | 3812 ft | 251 kts | 83° |
| 2026-05-05 17:17 | 48.19538 | 16.33880 | 3526 ft | 218 kts | 125° |
| 2026-05-05 17:17 | 48.18551 | 16.35344 | 3296 ft | 194 kts | 153° |
| 2026-05-05 17:17 | 48.17568 | 16.36663 | 3056 ft | 191 kts | 126° |
| 2026-05-05 17:17 | 48.17099 | 16.38485 | 2800 ft | 185 kts | 121° |
| 2026-05-05 17:18 | 48.16558 | 16.40179 | 2573 ft | 174 kts | 124° |
| 2026-05-05 17:18 | 48.16056 | 16.41717 | 2351 ft | 155 kts | 124° |
| 2026-05-05 17:18 | 48.15600 | 16.43117 | 2144 ft | 145 kts | 124° |
| 2026-05-05 17:18 | 48.15169 | 16.44444 | 1920 ft | 138 kts | 130° |
| 2026-05-05 17:19 | 48.14753 | 16.45718 | 1716 ft | 135 kts | 128° |
| 2026-05-05 17:19 | 48.14345 | 16.46975 | 1549 ft | 134 kts | 128° |
| 2026-05-05 17:19 | 48.13938 | 16.48230 | 1369 ft | 133 kts | 126° |
| 2026-05-05 17:19 | 48.13528 | 16.49487 | 1195 ft | 135 kts | 123° |
| 2026-05-05 17:20 | 48.13116 | 16.50757 | 1016 ft | 135 kts | 125° |
| 2026-05-05 17:20 | 48.12708 | 16.52018 | 824 ft | 135 kts | 123° |
| 2026-05-05 17:20 | 48.12300 | 16.53281 | 652 ft | 134 kts | 122° |
| 2026-05-05 17:20 | 48.11921 | 16.54459 | 619 ft | 115 kts | 124° |
| 2026-05-05 17:21 | 48.11610 | 16.55392 | 612 ft | 79 kts | 115° |
| 2026-05-05 17:21 | 48.11422 | 16.55972 | 616 ft | 54 kts | 115° |
| 2026-05-05 17:21 | 48.11271 | 16.56441 | 623 ft | 47 kts | 116° |
| 2026-05-05 17:22 | 48.11082 | 16.57089 | 616 ft | 19 kts | 80° |
| 2026-05-05 17:22 | 48.11166 | 16.57224 | 612 ft | 20 kts | 28° |
| 2026-05-05 17:22 | 48.11308 | 16.57327 | 617 ft | 26 kts | 26° |
| 2026-05-05 17:22 | 48.11471 | 16.57443 | 621 ft | 24 kts | 24° |
| 2026-05-05 17:23 | 48.11617 | 16.57426 | 610 ft | 21 kts | 344° |
| 2026-05-05 17:23 | 48.11756 | 16.57368 | 620 ft | 20 kts | 345° |
| 2026-05-05 17:23 | 48.11839 | 16.57261 | 616 ft | 15 kts | 295° |
| 2026-05-05 17:23 | 48.11862 | 16.57120 | 623 ft | 13 kts | 293° |
| 2026-05-05 17:24 | 48.11900 | 16.57001 | 616 ft | 12 kts | 296° |
| 2026-05-05 17:24 | 48.11906 | 16.56916 | 616 ft | 7 kts | 236° |
| 2026-05-05 17:24 | 48.11877 | 16.56888 | 612 ft | 1 kts | 206° |
| 2026-05-05 17:24 | 48.11869 | 16.56882 | 610 ft | 1 kts | 206° |
| 2026-05-05 17:25 | 48.11865 | 16.56879 | 610 ft | 0 kts | 206° |